Fort Fairfield, Maine
Current Conditions -  °F | °C
As of 8:54 PM on Sunday 25 Jan 2015 (Local Time) from KCAR Reporting Station
Clear Clear  
Wind Chill: -12°   Ceiling: Unl
Heat Index:   Visibility: 10mi
Dew Point: -8°   Wind: 18mph
Humidity: 51%   Direction: 300°WNW
Pressure: 29.66"   Gusts: 28mph
Location:  46.77°N, 67.83°W
Report Text: KCAR 260154Z AUTO 30016G24KT 10SM CLR M14/M22 A2966 RMK AO2 SLP059 T11391222
Loading
Personal Weather Stations






























Interactive Weather Map New forecast layout! Learn more

10-Day Weather Forecast

Advertisements
Track Severe Weather on mobile